sensor_id;sensor_type;location;lat;lon;timestamp;P1;durP1;ratioP1;P2;durP2;ratioP2
15258;SDS011;34462;51.368;12.364;2023-07-13T00:02:09;6.30;;;5.00;;
15258;SDS011;34462;51.368;12.364;2023-07-13T00:04:38;5.10;;;4.38;;
15258;SDS011;34462;51.368;12.364;2023-07-13T00:07:06;6.88;;;4.95;;
15258;SDS011;34462;51.368;12.364;2023-07-13T00:09:35;5.22;;;4.45;;
15258;SDS011;34462;51.368;12.364;2023-07-13T00:12:19;6.15;;;4.82;;
15258;SDS011;34462;51.368;12.364;2023-07-13T00:14:50;4.78;;;4.13;;
15258;SDS011;34462;51.368;12.364;2023-07-13T00:17:19;3.97;;;3.30;;
15258;SDS011;34462;51.368;12.364;2023-07-13T00:19:47;3.85;;;3.22;;
15258;SDS011;34462;51.368;12.364;2023-07-13T00:22:16;3.53;;;2.28;;
15258;SDS011;34462;51.368;12.364;2023-07-13T00:24:45;3.35;;;2.03;;
15258;SDS011;34462;51.368;12.364;2023-07-13T00:27:15;2.78;;;2.05;;
15258;SDS011;34462;51.368;12.364;2023-07-13T00:29:44;2.95;;;2.05;;
15258;SDS011;34462;51.368;12.364;2023-07-13T00:32:12;2.78;;;1.92;;
15258;SDS011;34462;51.368;12.364;2023-07-13T00:34:41;2.13;;;1.50;;
15258;SDS011;34462;51.368;12.364;2023-07-13T00:37:10;3.47;;;1.73;;
15258;SDS011;34462;51.368;12.364;2023-07-13T00:39:38;3.38;;;1.50;;
15258;SDS011;34462;51.368;12.364;2023-07-13T00:42:07;2.45;;;1.70;;
15258;SDS011;34462;51.368;12.364;2023-07-13T00:44:36;2.17;;;1.75;;
15258;SDS011;34462;51.368;12.364;2023-07-13T00:47:06;2.50;;;1.70;;
15258;SDS011;34462;51.368;12.364;2023-07-13T00:49:35;2.90;;;1.70;;
15258;SDS011;34462;51.368;12.364;2023-07-13T00:52:04;2.47;;;1.63;;
15258;SDS011;34462;51.368;12.364;2023-07-13T00:54:36;2.55;;;1.80;;
15258;SDS011;34462;51.368;12.364;2023-07-13T00:57:09;2.95;;;1.85;;
15258;SDS011;34462;51.368;12.364;2023-07-13T00:59:45;2.38;;;1.65;;
15258;SDS011;34462;51.368;12.364;2023-07-13T01:02:17;1.90;;;1.70;;
15258;SDS011;34462;51.368;12.364;2023-07-13T01:04:48;2.00;;;1.50;;
15258;SDS011;34462;51.368;12.364;2023-07-13T01:07:16;2.70;;;1.45;;
15258;SDS011;34462;51.368;12.364;2023-07-13T01:09:46;1.45;;;1.33;;
15258;SDS011;34462;51.368;12.364;2023-07-13T01:12:14;2.70;;;1.58;;
15258;SDS011;34462;51.368;12.364;2023-07-13T01:14:45;2.08;;;1.75;;
15258;SDS011;34462;51.368;12.364;2023-07-13T01:17:14;3.05;;;1.77;;
15258;SDS011;34462;51.368;12.364;2023-07-13T01:19:43;2.03;;;1.60;;
15258;SDS011;34462;51.368;12.364;2023-07-13T01:22:15;2.13;;;1.60;;
15258;SDS011;34462;51.368;12.364;2023-07-13T01:24:46;2.28;;;1.40;;
15258;SDS011;34462;51.368;12.364;2023-07-13T01:27:16;4.68;;;1.80;;
15258;SDS011;34462;51.368;12.364;2023-07-13T01:29:48;2.53;;;1.73;;
15258;SDS011;34462;51.368;12.364;2023-07-13T01:32:18;1.60;;;1.50;;
15258;SDS011;34462;51.368;12.364;2023-07-13T01:34:50;2.22;;;1.70;;
15258;SDS011;34462;51.368;12.364;2023-07-13T01:37:22;3.53;;;1.60;;
15258;SDS011;34462;51.368;12.364;2023-07-13T01:39:52;2.55;;;1.67;;
15258;SDS011;34462;51.368;12.364;2023-07-13T01:42:21;1.77;;;1.50;;
15258;SDS011;34462;51.368;12.364;2023-07-13T01:44:50;3.00;;;1.60;;
15258;SDS011;34462;51.368;12.364;2023-07-13T01:47:18;2.05;;;1.58;;
15258;SDS011;34462;51.368;12.364;2023-07-13T01:49:47;4.00;;;1.67;;
15258;SDS011;34462;51.368;12.364;2023-07-13T01:52:17;2.22;;;1.90;;
15258;SDS011;34462;51.368;12.364;2023-07-13T01:54:46;2.92;;;1.65;;
15258;SDS011;34462;51.368;12.364;2023-07-13T01:57:15;3.28;;;1.90;;
15258;SDS011;34462;51.368;12.364;2023-07-13T01:59:43;3.15;;;2.00;;
15258;SDS011;34462;51.368;12.364;2023-07-13T02:02:12;3.35;;;1.85;;
15258;SDS011;34462;51.368;12.364;2023-07-13T02:04:41;3.00;;;1.73;;
15258;SDS011;34462;51.368;12.364;2023-07-13T02:07:09;2.75;;;1.67;;
15258;SDS011;34462;51.368;12.364;2023-07-13T02:09:38;3.25;;;1.83;;
15258;SDS011;34462;51.368;12.364;2023-07-13T02:12:08;4.57;;;2.05;;
15258;SDS011;34462;51.368;12.364;2023-07-13T02:14:37;3.50;;;1.92;;
15258;SDS011;34462;51.368;12.364;2023-07-13T02:17:05;3.25;;;1.90;;
15258;SDS011;34462;51.368;12.364;2023-07-13T02:19:34;3.78;;;1.80;;
15258;SDS011;34462;51.368;12.364;2023-07-13T02:22:02;3.58;;;1.80;;
15258;SDS011;34462;51.368;12.364;2023-07-13T02:24:31;2.80;;;1.80;;
15258;SDS011;34462;51.368;12.364;2023-07-13T02:27:00;2.22;;;1.67;;
15258;SDS011;34462;51.368;12.364;2023-07-13T02:29:30;2.22;;;1.70;;
15258;SDS011;34462;51.368;12.364;2023-07-13T02:31:58;3.10;;;1.70;;
15258;SDS011;34462;51.368;12.364;2023-07-13T02:34:27;2.50;;;1.95;;
15258;SDS011;34462;51.368;12.364;2023-07-13T02:36:58;2.83;;;2.00;;
15258;SDS011;34462;51.368;12.364;2023-07-13T02:39:27;5.35;;;2.10;;
15258;SDS011;34462;51.368;12.364;2023-07-13T02:41:55;4.07;;;2.17;;
15258;SDS011;34462;51.368;12.364;2023-07-13T02:44:24;4.00;;;2.03;;
15258;SDS011;34462;51.368;12.364;2023-07-13T02:46:54;2.78;;;2.30;;
15258;SDS011;34462;51.368;12.364;2023-07-13T02:49:22;3.45;;;2.20;;
15258;SDS011;34462;51.368;12.364;2023-07-13T02:51:51;4.72;;;2.20;;
15258;SDS011;34462;51.368;12.364;2023-07-13T02:54:19;2.60;;;2.22;;
15258;SDS011;34462;51.368;12.364;2023-07-13T02:56:48;3.50;;;2.50;;
15258;SDS011;34462;51.368;12.364;2023-07-13T02:59:17;4.18;;;2.63;;
15258;SDS011;34462;51.368;12.364;2023-07-13T03:01:45;3.40;;;2.40;;
15258;SDS011;34462;51.368;12.364;2023-07-13T03:04:15;2.50;;;2.30;;
15258;SDS011;34462;51.368;12.364;2023-07-13T03:06:46;3.42;;;2.63;;
15258;SDS011;34462;51.368;12.364;2023-07-13T03:09:14;3.58;;;2.38;;
15258;SDS011;34462;51.368;12.364;2023-07-13T03:11:43;4.25;;;2.50;;
15258;SDS011;34462;51.368;12.364;2023-07-13T03:14:11;2.38;;;2.15;;
15258;SDS011;34462;51.368;12.364;2023-07-13T03:16:40;3.25;;;2.35;;
15258;SDS011;34462;51.368;12.364;2023-07-13T03:19:08;3.80;;;2.53;;
15258;SDS011;34462;51.368;12.364;2023-07-13T03:21:38;3.35;;;2.20;;
15258;SDS011;34462;51.368;12.364;2023-07-13T03:24:07;4.00;;;2.70;;
15258;SDS011;34462;51.368;12.364;2023-07-13T03:26:35;3.65;;;2.88;;
15258;SDS011;34462;51.368;12.364;2023-07-13T03:29:04;3.63;;;2.90;;
15258;SDS011;34462;51.368;12.364;2023-07-13T03:31:33;2.53;;;2.33;;
15258;SDS011;34462;51.368;12.364;2023-07-13T03:34:03;4.50;;;2.80;;
15258;SDS011;34462;51.368;12.364;2023-07-13T03:36:32;2.90;;;2.63;;
15258;SDS011;34462;51.368;12.364;2023-07-13T03:39:02;4.60;;;2.60;;
15258;SDS011;34462;51.368;12.364;2023-07-13T03:41:35;3.80;;;2.60;;
15258;SDS011;34462;51.368;12.364;2023-07-13T03:44:03;6.95;;;2.95;;
15258;SDS011;34462;51.368;12.364;2023-07-13T03:46:32;5.47;;;2.95;;
15258;SDS011;34462;51.368;12.364;2023-07-13T03:49:01;2.70;;;2.50;;
15258;SDS011;34462;51.368;12.364;2023-07-13T03:51:31;4.05;;;2.92;;
15258;SDS011;34462;51.368;12.364;2023-07-13T03:54:00;3.17;;;2.50;;
15258;SDS011;34462;51.368;12.364;2023-07-13T03:56:30;3.42;;;2.58;;
15258;SDS011;34462;51.368;12.364;2023-07-13T03:58:59;3.00;;;2.70;;
15258;SDS011;34462;51.368;12.364;2023-07-13T04:01:28;4.72;;;2.88;;
15258;SDS011;34462;51.368;12.364;2023-07-13T04:03:57;3.55;;;2.88;;
15258;SDS011;34462;51.368;12.364;2023-07-13T04:06:29;3.47;;;2.80;;
15258;SDS011;34462;51.368;12.364;2023-07-13T04:09:00;5.50;;;3.10;;
15258;SDS011;34462;51.368;12.364;2023-07-13T04:11:32;5.40;;;2.97;;
15258;SDS011;34462;51.368;12.364;2023-07-13T04:14:02;3.33;;;2.70;;
15258;SDS011;34462;51.368;12.364;2023-07-13T04:16:32;4.78;;;2.72;;
15258;SDS011;34462;51.368;12.364;2023-07-13T04:19:00;3.10;;;2.80;;
15258;SDS011;34462;51.368;12.364;2023-07-13T04:21:29;3.65;;;2.83;;
15258;SDS011;34462;51.368;12.364;2023-07-13T04:23:59;4.45;;;2.72;;
15258;SDS011;34462;51.368;12.364;2023-07-13T04:26:29;5.07;;;2.70;;
15258;SDS011;34462;51.368;12.364;2023-07-13T04:28:58;4.10;;;2.72;;
15258;SDS011;34462;51.368;12.364;2023-07-13T04:31:26;6.72;;;3.03;;
15258;SDS011;34462;51.368;12.364;2023-07-13T04:33:55;4.85;;;2.85;;
15258;SDS011;34462;51.368;12.364;2023-07-13T04:36:23;4.72;;;3.45;;
15258;SDS011;34462;51.368;12.364;2023-07-13T04:38:53;3.33;;;3.03;;
15258;SDS011;34462;51.368;12.364;2023-07-13T04:41:21;5.57;;;3.00;;
15258;SDS011;34462;51.368;12.364;2023-07-13T04:43:51;3.28;;;2.63;;
15258;SDS011;34462;51.368;12.364;2023-07-13T04:46:22;3.75;;;2.90;;
15258;SDS011;34462;51.368;12.364;2023-07-13T04:48:51;3.65;;;2.92;;
15258;SDS011;34462;51.368;12.364;2023-07-13T04:51:20;3.38;;;2.65;;
15258;SDS011;34462;51.368;12.364;2023-07-13T04:53:49;4.22;;;2.80;;
15258;SDS011;34462;51.368;12.364;2023-07-13T04:56:24;4.40;;;3.05;;
15258;SDS011;34462;51.368;12.364;2023-07-13T04:58:54;5.50;;;2.70;;
15258;SDS011;34462;51.368;12.364;2023-07-13T05:01:22;3.38;;;2.47;;
15258;SDS011;34462;51.368;12.364;2023-07-13T05:03:51;4.22;;;2.30;;
15258;SDS011;34462;51.368;12.364;2023-07-13T05:06:25;3.92;;;2.45;;
15258;SDS011;34462;51.368;12.364;2023-07-13T05:08:53;2.95;;;2.50;;
15258;SDS011;34462;51.368;12.364;2023-07-13T05:11:21;3.83;;;2.67;;
15258;SDS011;34462;51.368;12.364;2023-07-13T05:13:50;6.85;;;2.88;;
15258;SDS011;34462;51.368;12.364;2023-07-13T05:16:20;3.28;;;2.10;;
15258;SDS011;34462;51.368;12.364;2023-07-13T05:18:48;3.05;;;2.30;;
15258;SDS011;34462;51.368;12.364;2023-07-13T05:21:17;5.75;;;2.35;;
15258;SDS011;34462;51.368;12.364;2023-07-13T05:23:45;2.78;;;2.03;;
15258;SDS011;34462;51.368;12.364;2023-07-13T05:26:14;2.92;;;2.17;;
15258;SDS011;34462;51.368;12.364;2023-07-13T05:28:42;5.22;;;1.95;;
15258;SDS011;34462;51.368;12.364;2023-07-13T05:31:11;3.65;;;2.08;;
15258;SDS011;34462;51.368;12.364;2023-07-13T05:33:42;2.75;;;1.95;;
15258;SDS011;34462;51.368;12.364;2023-07-13T05:36:11;4.00;;;1.90;;
15258;SDS011;34462;51.368;12.364;2023-07-13T05:38:40;6.63;;;2.13;;
15258;SDS011;34462;51.368;12.364;2023-07-13T05:41:09;2.55;;;2.10;;
15258;SDS011;34462;51.368;12.364;2023-07-13T05:43:37;5.13;;;2.17;;
15258;SDS011;34462;51.368;12.364;2023-07-13T05:46:06;4.55;;;2.50;;
15258;SDS011;34462;51.368;12.364;2023-07-13T05:48:34;3.38;;;2.20;;
15258;SDS011;34462;51.368;12.364;2023-07-13T05:51:04;3.70;;;2.10;;
15258;SDS011;34462;51.368;12.364;2023-07-13T05:53:33;3.63;;;1.85;;
15258;SDS011;34462;51.368;12.364;2023-07-13T05:56:02;3.22;;;2.38;;
15258;SDS011;34462;51.368;12.364;2023-07-13T05:58:30;3.97;;;2.42;;
15258;SDS011;34462;51.368;12.364;2023-07-13T06:00:59;2.58;;;2.10;;
15258;SDS011;34462;51.368;12.364;2023-07-13T06:03:30;3.63;;;2.40;;
15258;SDS011;34462;51.368;12.364;2023-07-13T06:05:59;4.18;;;2.13;;
15258;SDS011;34462;51.368;12.364;2023-07-13T06:08:29;3.70;;;2.30;;
15258;SDS011;34462;51.368;12.364;2023-07-13T06:11:04;2.92;;;2.10;;
15258;SDS011;34462;51.368;12.364;2023-07-13T06:13:34;2.30;;;1.98;;
15258;SDS011;34462;51.368;12.364;2023-07-13T06:16:03;2.53;;;2.22;;
15258;SDS011;34462;51.368;12.364;2023-07-13T06:18:32;2.85;;;2.03;;
15258;SDS011;34462;51.368;12.364;2023-07-13T06:21:05;5.50;;;2.70;;
15258;SDS011;34462;51.368;12.364;2023-07-13T06:23:36;4.32;;;2.60;;
15258;SDS011;34462;51.368;12.364;2023-07-13T06:26:05;5.35;;;2.80;;
15258;SDS011;34462;51.368;12.364;2023-07-13T06:28:35;4.28;;;2.88;;
15258;SDS011;34462;51.368;12.364;2023-07-13T06:31:06;6.68;;;2.88;;
15258;SDS011;34462;51.368;12.364;2023-07-13T06:33:36;4.10;;;2.20;;
15258;SDS011;34462;51.368;12.364;2023-07-13T06:36:05;4.45;;;2.33;;
15258;SDS011;34462;51.368;12.364;2023-07-13T06:38:37;6.00;;;2.75;;
15258;SDS011;34462;51.368;12.364;2023-07-13T06:41:05;3.90;;;2.60;;
15258;SDS011;34462;51.368;12.364;2023-07-13T06:43:35;3.47;;;2.45;;
15258;SDS011;34462;51.368;12.364;2023-07-13T06:46:04;4.03;;;2.20;;
15258;SDS011;34462;51.368;12.364;2023-07-13T06:48:33;6.40;;;2.20;;
15258;SDS011;34462;51.368;12.364;2023-07-13T06:51:02;6.18;;;2.53;;
15258;SDS011;34462;51.368;12.364;2023-07-13T06:53:30;4.30;;;2.60;;
15258;SDS011;34462;51.368;12.364;2023-07-13T06:56:00;3.00;;;1.95;;
15258;SDS011;34462;51.368;12.364;2023-07-13T06:58:29;2.88;;;2.17;;
15258;SDS011;34462;51.368;12.364;2023-07-13T07:00:57;3.78;;;1.85;;
15258;SDS011;34462;51.368;12.364;2023-07-13T07:03:26;4.35;;;2.17;;
15258;SDS011;34462;51.368;12.364;2023-07-13T07:05:59;4.78;;;2.10;;
15258;SDS011;34462;51.368;12.364;2023-07-13T07:08:28;3.15;;;2.05;;
15258;SDS011;34462;51.368;12.364;2023-07-13T07:10:57;4.28;;;2.47;;
15258;SDS011;34462;51.368;12.364;2023-07-13T07:13:27;3.65;;;2.13;;
15258;SDS011;34462;51.368;12.364;2023-07-13T07:15:56;3.50;;;2.13;;
15258;SDS011;34462;51.368;12.364;2023-07-13T07:18:26;3.35;;;2.17;;
15258;SDS011;34462;51.368;12.364;2023-07-13T07:20:54;3.08;;;2.10;;
15258;SDS011;34462;51.368;12.364;2023-07-13T07:23:23;4.03;;;2.28;;
15258;SDS011;34462;51.368;12.364;2023-07-13T07:25:52;9.48;;;2.50;;
15258;SDS011;34462;51.368;12.364;2023-07-13T07:28:20;5.75;;;2.50;;
15258;SDS011;34462;51.368;12.364;2023-07-13T07:30:54;3.45;;;2.45;;
15258;SDS011;34462;51.368;12.364;2023-07-13T07:33:26;4.57;;;2.30;;
15258;SDS011;34462;51.368;12.364;2023-07-13T07:35:55;2.80;;;2.03;;
15258;SDS011;34462;51.368;12.364;2023-07-13T07:38:26;4.47;;;2.17;;
15258;SDS011;34462;51.368;12.364;2023-07-13T07:40:55;4.18;;;2.10;;
15258;SDS011;34462;51.368;12.364;2023-07-13T07:43:27;3.90;;;2.20;;
15258;SDS011;34462;51.368;12.364;2023-07-13T07:45:56;4.32;;;2.10;;
15258;SDS011;34462;51.368;12.364;2023-07-13T07:48:28;2.05;;;1.67;;
15258;SDS011;34462;51.368;12.364;2023-07-13T07:50:57;3.72;;;1.98;;
15258;SDS011;34462;51.368;12.364;2023-07-13T07:53:25;3.78;;;2.30;;
15258;SDS011;34462;51.368;12.364;2023-07-13T07:55:55;2.90;;;1.80;;
15258;SDS011;34462;51.368;12.364;2023-07-13T07:58:44;3.03;;;1.80;;
15258;SDS011;34462;51.368;12.364;2023-07-13T08:01:17;4.75;;;2.97;;
15258;SDS011;34462;51.368;12.364;2023-07-13T08:03:48;3.58;;;1.80;;
15258;SDS011;34462;51.368;12.364;2023-07-13T08:06:20;2.90;;;1.67;;
15258;SDS011;34462;51.368;12.364;2023-07-13T08:08:52;3.67;;;1.80;;
15258;SDS011;34462;51.368;12.364;2023-07-13T08:11:20;5.40;;;2.00;;
15258;SDS011;34462;51.368;12.364;2023-07-13T08:13:52;3.38;;;1.55;;
15258;SDS011;34462;51.368;12.364;2023-07-13T08:16:22;3.67;;;1.50;;
15258;SDS011;34462;51.368;12.364;2023-07-13T08:18:52;3.22;;;1.90;;
15258;SDS011;34462;51.368;12.364;2023-07-13T08:21:21;2.42;;;1.63;;
15258;SDS011;34462;51.368;12.364;2023-07-13T08:23:49;4.57;;;1.88;;
15258;SDS011;34462;51.368;12.364;2023-07-13T08:26:18;4.60;;;1.98;;
15258;SDS011;34462;51.368;12.364;2023-07-13T08:28:46;2.30;;;1.70;;
15258;SDS011;34462;51.368;12.364;2023-07-13T08:31:15;5.10;;;1.60;;
15258;SDS011;34462;51.368;12.364;2023-07-13T08:33:44;4.15;;;1.60;;
15258;SDS011;34462;51.368;12.364;2023-07-13T08:36:13;3.47;;;1.70;;
15258;SDS011;34462;51.368;12.364;2023-07-13T08:38:41;2.67;;;1.65;;
15258;SDS011;34462;51.368;12.364;2023-07-13T08:41:11;4.10;;;1.70;;
15258;SDS011;34462;51.368;12.364;2023-07-13T08:43:41;3.88;;;2.00;;
15258;SDS011;34462;51.368;12.364;2023-07-13T08:46:15;3.28;;;2.05;;
15258;SDS011;34462;51.368;12.364;2023-07-13T08:48:49;2.85;;;1.45;;
15258;SDS011;34462;51.368;12.364;2023-07-13T08:51:28;3.33;;;1.75;;
15258;SDS011;34462;51.368;12.364;2023-07-13T08:54:12;2.58;;;1.60;;
15258;SDS011;34462;51.368;12.364;2023-07-13T08:56:49;3.45;;;1.75;;
15258;SDS011;34462;51.368;12.364;2023-07-13T08:59:21;3.22;;;1.63;;
15258;SDS011;34462;51.368;12.364;2023-07-13T09:02:09;3.08;;;1.60;;
15258;SDS011;34462;51.368;12.364;2023-07-13T09:04:52;5.10;;;1.50;;
15258;SDS011;34462;51.368;12.364;2023-07-13T09:07:27;2.85;;;1.50;;
15258;SDS011;34462;51.368;12.364;2023-07-13T09:10:05;2.78;;;1.75;;
15258;SDS011;34462;51.368;12.364;2023-07-13T09:12:45;4.88;;;1.77;;
15258;SDS011;34462;51.368;12.364;2023-07-13T09:15:23;6.43;;;1.80;;
15258;SDS011;34462;51.368;12.364;2023-07-13T09:17:57;3.13;;;1.67;;
15258;SDS011;34462;51.368;12.364;2023-07-13T09:20:32;3.15;;;1.70;;
15258;SDS011;34462;51.368;12.364;2023-07-13T09:23:04;3.72;;;1.90;;
15258;SDS011;34462;51.368;12.364;2023-07-13T09:25:40;3.42;;;1.60;;
15258;SDS011;34462;51.368;12.364;2023-07-13T09:28:15;2.80;;;1.60;;
15258;SDS011;34462;51.368;12.364;2023-07-13T09:30:50;3.50;;;1.80;;
15258;SDS011;34462;51.368;12.364;2023-07-13T09:33:21;4.47;;;1.63;;
15258;SDS011;34462;51.368;12.364;2023-07-13T09:35:51;4.32;;;1.92;;
15258;SDS011;34462;51.368;12.364;2023-07-13T09:38:21;3.45;;;1.95;;
15258;SDS011;34462;51.368;12.364;2023-07-13T09:41:00;3.25;;;1.75;;
15258;SDS011;34462;51.368;12.364;2023-07-13T09:43:39;2.70;;;1.60;;
15258;SDS011;34462;51.368;12.364;2023-07-13T09:46:27;4.38;;;1.85;;
15258;SDS011;34462;51.368;12.364;2023-07-13T09:48:56;3.97;;;2.25;;
15258;SDS011;34462;51.368;12.364;2023-07-13T09:51:25;3.38;;;1.98;;
15258;SDS011;34462;51.368;12.364;2023-07-13T09:53:54;4.25;;;1.88;;
15258;SDS011;34462;51.368;12.364;2023-07-13T09:56:24;2.15;;;1.70;;
15258;SDS011;34462;51.368;12.364;2023-07-13T09:58:55;2.20;;;1.65;;
15258;SDS011;34462;51.368;12.364;2023-07-13T10:01:32;4.45;;;1.70;;
15258;SDS011;34462;51.368;12.364;2023-07-13T10:04:02;7.47;;;2.10;;
15258;SDS011;34462;51.368;12.364;2023-07-13T10:06:41;4.18;;;1.65;;
15258;SDS011;34462;51.368;12.364;2023-07-13T10:09:10;3.58;;;1.85;;
15258;SDS011;34462;51.368;12.364;2023-07-13T10:11:42;3.60;;;1.90;;
15258;SDS011;34462;51.368;12.364;2023-07-13T10:14:12;5.22;;;1.73;;
15258;SDS011;34462;51.368;12.364;2023-07-13T10:16:44;4.53;;;1.83;;
15258;SDS011;34462;51.368;12.364;2023-07-13T10:19:16;4.93;;;1.75;;
15258;SDS011;34462;51.368;12.364;2023-07-13T10:21:53;3.97;;;1.83;;
15258;SDS011;34462;51.368;12.364;2023-07-13T10:24:23;2.60;;;1.95;;
15258;SDS011;34462;51.368;12.364;2023-07-13T10:26:54;3.08;;;1.80;;
15258;SDS011;34462;51.368;12.364;2023-07-13T10:29:29;3.00;;;1.77;;
15258;SDS011;34462;51.368;12.364;2023-07-13T10:32:02;2.40;;;1.95;;
15258;SDS011;34462;51.368;12.364;2023-07-13T10:34:37;3.70;;;1.90;;
15258;SDS011;34462;51.368;12.364;2023-07-13T10:37:07;3.20;;;1.98;;
15258;SDS011;34462;51.368;12.364;2023-07-13T10:39:48;3.70;;;2.00;;
15258;SDS011;34462;51.368;12.364;2023-07-13T10:42:26;5.00;;;2.10;;
15258;SDS011;34462;51.368;12.364;2023-07-13T10:44:59;2.47;;;1.67;;
15258;SDS011;34462;51.368;12.364;2023-07-13T10:47:28;5.20;;;1.92;;
15258;SDS011;34462;51.368;12.364;2023-07-13T10:49:57;4.20;;;1.90;;
15258;SDS011;34462;51.368;12.364;2023-07-13T10:52:44;2.97;;;1.85;;
15258;SDS011;34462;51.368;12.364;2023-07-13T10:55:32;2.20;;;1.70;;
15258;SDS011;34462;51.368;12.364;2023-07-13T10:58:13;2.95;;;1.60;;
15258;SDS011;34462;51.368;12.364;2023-07-13T11:00:46;1.80;;;1.60;;
15258;SDS011;34462;51.368;12.364;2023-07-13T11:03:17;3.28;;;1.60;;
15258;SDS011;34462;51.368;12.364;2023-07-13T11:05:48;2.13;;;1.80;;
15258;SDS011;34462;51.368;12.364;2023-07-13T11:08:21;3.15;;;1.80;;
15258;SDS011;34462;51.368;12.364;2023-07-13T11:11:03;3.63;;;1.50;;
15258;SDS011;34462;51.368;12.364;2023-07-13T11:14:02;2.05;;;1.33;;
15258;SDS011;34462;51.368;12.364;2023-07-13T11:16:37;2.13;;;1.20;;
15258;SDS011;34462;51.368;12.364;2023-07-13T11:22:11;2.83;;;1.50;;
15258;SDS011;34462;51.368;12.364;2023-07-13T11:27:50;2.25;;;1.15;;
15258;SDS011;34462;51.368;12.364;2023-07-13T11:30:34;2.38;;;1.05;;
15258;SDS011;34462;51.368;12.364;2023-07-13T11:33:16;3.25;;;1.40;;
15258;SDS011;34462;51.368;12.364;2023-07-13T11:35:49;4.63;;;1.60;;
15258;SDS011;34462;51.368;12.364;2023-07-13T11:38:28;2.45;;;1.27;;
15258;SDS011;34462;51.368;12.364;2023-07-13T11:41:02;2.45;;;1.20;;
15258;SDS011;34462;51.368;12.364;2023-07-13T11:43:33;2.35;;;1.40;;
15258;SDS011;34462;51.368;12.364;2023-07-13T11:46:13;1.92;;;1.38;;
15258;SDS011;34462;51.368;12.364;2023-07-13T11:48:43;3.58;;;1.50;;
15258;SDS011;34462;51.368;12.364;2023-07-13T11:51:16;2.33;;;1.50;;
15258;SDS011;34462;51.368;12.364;2023-07-13T11:53:49;3.03;;;1.40;;
15258;SDS011;34462;51.368;12.364;2023-07-13T11:56:23;1.90;;;1.40;;
15258;SDS011;34462;51.368;12.364;2023-07-13T11:58:53;2.97;;;1.50;;
15258;SDS011;34462;51.368;12.364;2023-07-13T12:01:25;3.15;;;1.30;;
15258;SDS011;34462;51.368;12.364;2023-07-13T12:03:59;3.10;;;1.27;;
15258;SDS011;34462;51.368;12.364;2023-07-13T12:06:30;2.60;;;1.17;;
15258;SDS011;34462;51.368;12.364;2023-07-13T12:09:03;2.78;;;1.10;;
15258;SDS011;34462;51.368;12.364;2023-07-13T12:11:40;2.17;;;1.20;;
15258;SDS011;34462;51.368;12.364;2023-07-13T12:14:13;3.75;;;1.30;;
15258;SDS011;34462;51.368;12.364;2023-07-13T12:16:44;3.95;;;1.13;;
15258;SDS011;34462;51.368;12.364;2023-07-13T12:19:17;2.83;;;1.30;;
15258;SDS011;34462;51.368;12.364;2023-07-13T12:21:48;1.80;;;1.23;;
15258;SDS011;34462;51.368;12.364;2023-07-13T12:24:18;2.38;;;1.48;;
15258;SDS011;34462;51.368;12.364;2023-07-13T12:26:52;2.85;;;1.35;;
15258;SDS011;34462;51.368;12.364;2023-07-13T12:29:22;3.00;;;1.42;;
15258;SDS011;34462;51.368;12.364;2023-07-13T12:31:52;2.45;;;1.52;;
15258;SDS011;34462;51.368;12.364;2023-07-13T12:34:23;3.65;;;1.83;;
15258;SDS011;34462;51.368;12.364;2023-07-13T12:36:54;3.10;;;1.40;;
15258;SDS011;34462;51.368;12.364;2023-07-13T12:39:27;1.38;;;1.20;;
15258;SDS011;34462;51.368;12.364;2023-07-13T12:42:11;4.28;;;1.10;;
15258;SDS011;34462;51.368;12.364;2023-07-13T12:44:48;3.67;;;1.08;;
15258;SDS011;34462;51.368;12.364;2023-07-13T12:47:19;4.43;;;0.93;;
15258;SDS011;34462;51.368;12.364;2023-07-13T12:49:49;4.53;;;1.00;;
15258;SDS011;34462;51.368;12.364;2023-07-13T12:52:22;2.42;;;1.00;;
15258;SDS011;34462;51.368;12.364;2023-07-13T12:54:57;1.40;;;0.98;;
15258;SDS011;34462;51.368;12.364;2023-07-13T12:57:30;3.42;;;1.20;;
15258;SDS011;34462;51.368;12.364;2023-07-13T12:59:58;2.33;;;0.90;;
15258;SDS011;34462;51.368;12.364;2023-07-13T13:02:32;2.72;;;1.08;;
15258;SDS011;34462;51.368;12.364;2023-07-13T13:05:02;2.25;;;1.05;;
15258;SDS011;34462;51.368;12.364;2023-07-13T13:07:32;2.20;;;0.90;;
15258;SDS011;34462;51.368;12.364;2023-07-13T13:10:00;4.63;;;1.00;;
15258;SDS011;34462;51.368;12.364;2023-07-13T13:12:38;2.78;;;1.27;;
15258;SDS011;34462;51.368;12.364;2023-07-13T13:15:08;3.50;;;1.20;;
15258;SDS011;34462;51.368;12.364;2023-07-13T13:17:39;3.42;;;0.98;;
15258;SDS011;34462;51.368;12.364;2023-07-13T13:20:13;1.63;;;1.10;;
15258;SDS011;34462;51.368;12.364;2023-07-13T13:22:43;1.70;;;1.10;;
15258;SDS011;34462;51.368;12.364;2023-07-13T13:25:11;2.85;;;1.20;;
15258;SDS011;34462;51.368;12.364;2023-07-13T13:27:41;4.78;;;1.00;;
15258;SDS011;34462;51.368;12.364;2023-07-13T13:30:12;2.15;;;0.90;;
15258;SDS011;34462;51.368;12.364;2023-07-13T13:32:45;1.38;;;0.90;;
15258;SDS011;34462;51.368;12.364;2023-07-13T13:35:15;5.07;;;1.20;;
15258;SDS011;34462;51.368;12.364;2023-07-13T13:37:44;2.50;;;1.10;;
15258;SDS011;34462;51.368;12.364;2023-07-13T13:40:17;1.38;;;1.00;;
15258;SDS011;34462;51.368;12.364;2023-07-13T13:42:49;2.03;;;1.05;;
15258;SDS011;34462;51.368;12.364;2023-07-13T13:45:18;1.10;;;1.00;;
15258;SDS011;34462;51.368;12.364;2023-07-13T13:47:48;2.45;;;1.00;;
15258;SDS011;34462;51.368;12.364;2023-07-13T13:50:17;3.10;;;1.10;;
15258;SDS011;34462;51.368;12.364;2023-07-13T13:52:48;2.63;;;1.00;;
15258;SDS011;34462;51.368;12.364;2023-07-13T13:55:18;2.03;;;0.77;;
15258;SDS011;34462;51.368;12.364;2023-07-13T13:57:50;2.28;;;1.00;;
15258;SDS011;34462;51.368;12.364;2023-07-13T14:00:20;2.92;;;0.90;;
15258;SDS011;34462;51.368;12.364;2023-07-13T14:02:50;2.38;;;1.02;;
15258;SDS011;34462;51.368;12.364;2023-07-13T14:05:21;3.38;;;1.48;;
15258;SDS011;34462;51.368;12.364;2023-07-13T14:07:52;2.80;;;1.30;;
15258;SDS011;34462;51.368;12.364;2023-07-13T14:10:21;2.17;;;1.10;;
15258;SDS011;34462;51.368;12.364;2023-07-13T14:12:50;3.88;;;1.02;;
15258;SDS011;34462;51.368;12.364;2023-07-13T14:15:21;2.20;;;1.05;;
15258;SDS011;34462;51.368;12.364;2023-07-13T14:17:52;1.90;;;1.10;;
15258;SDS011;34462;51.368;12.364;2023-07-13T14:20:22;2.88;;;1.10;;
15258;SDS011;34462;51.368;12.364;2023-07-13T14:22:52;1.02;;;0.90;;
15258;SDS011;34462;51.368;12.364;2023-07-13T14:25:21;1.27;;;0.85;;
15258;SDS011;34462;51.368;12.364;2023-07-13T14:27:51;1.60;;;1.00;;
15258;SDS011;34462;51.368;12.364;2023-07-13T14:30:25;2.67;;;1.05;;
15258;SDS011;34462;51.368;12.364;2023-07-13T14:32:55;1.88;;;1.40;;
15258;SDS011;34462;51.368;12.364;2023-07-13T14:35:23;2.88;;;1.23;;
15258;SDS011;34462;51.368;12.364;2023-07-13T14:37:52;1.92;;;0.90;;
15258;SDS011;34462;51.368;12.364;2023-07-13T14:40:22;2.88;;;1.15;;
15258;SDS011;34462;51.368;12.364;2023-07-13T14:42:54;2.03;;;1.08;;
15258;SDS011;34462;51.368;12.364;2023-07-13T14:45:23;1.55;;;0.95;;
15258;SDS011;34462;51.368;12.364;2023-07-13T14:47:52;1.63;;;1.02;;
15258;SDS011;34462;51.368;12.364;2023-07-13T14:50:24;2.55;;;1.20;;
15258;SDS011;34462;51.368;12.364;2023-07-13T14:52:58;2.05;;;1.10;;
15258;SDS011;34462;51.368;12.364;2023-07-13T14:55:26;1.77;;;1.17;;
15258;SDS011;34462;51.368;12.364;2023-07-13T14:57:55;2.28;;;1.13;;
15258;SDS011;34462;51.368;12.364;2023-07-13T15:00:24;3.10;;;1.23;;
15258;SDS011;34462;51.368;12.364;2023-07-13T15:02:55;1.52;;;1.00;;